This is the latest recevied weather packets stored in our database for station/object IW2GOB-3. If no packets are shown the sender has not sent any weather packets the latest 1 day(s).
| Time | Temp. | Humidity | Pressure | Rain* | Wind** | Luminosity | Snow |
|---|---|---|---|---|---|---|---|
| 1777967122 | 13.33° C | 91% | 1012.2 hPa | 2.03 mm | 0.45 m/s, 315° | - | - |
| 1777966522 | 13.33° C | 91% | 1012 hPa | 2.03 mm | 0.45 m/s, 15° | - | - |
| 1777965922 | 13.33° C | 91% | 1012.2 hPa | 1.78 mm | 0 m/s | - | - |
| 1777965322 | 13.33° C | 91% | 1012.2 hPa | 1.02 mm | 0 m/s | - | - |
| 1777964722 | 13.33° C | 90% | 1012.3 hPa | 1.02 mm | 0 m/s | - | - |
| 1777964122 | 13.33° C | 90% | 1012.4 hPa | 1.02 mm | 0.45 m/s, 255° | - | - |
| 1777963522 | 13.33° C | 90% | 1012.5 hPa | 1.02 mm | 0.89 m/s, 281° | - | - |
| 1777962922 | 13.33° C | 89% | 1012.5 hPa | 1.27 mm | 1.34 m/s, 248° | - | - |
| 1777962322 | 13.33° C | 89% | 1012.4 hPa | 1.27 mm | 2.24 m/s, 226° | - | - |
| 1777961722 | 13.33° C | 88% | 1012.4 hPa | 1.27 mm | 2.24 m/s, 235° | - | - |
| 1777961122 | 13.89° C | 87% | 1012.3 hPa | 1.02 mm | 3.13 m/s, 259° | - | - |
| 1777960522 | 13.89° C | 86% | 1012.2 hPa | 0.76 mm | 2.68 m/s, 248° | - | - |
| 1777959922 | 13.89° C | 84% | 1012.2 hPa | 0.51 mm | 2.68 m/s, 245° | - | - |
| 1777959322 | 14.44° C | 83% | 1011.8 hPa | 0.25 mm | 0.89 m/s, 265° | - | - |
| 1777958722 | 15° C | 81% | 1011.7 hPa | 0.25 mm | 0.45 m/s, 241° | - | - |
| 1777958122 | 15° C | 79% | 1011.7 hPa | 0 mm | 0.89 m/s, 229° | - | - |
| 1777957522 | 15° C | 78% | 1011.6 hPa | 0 mm | 0.45 m/s, 232° | - | - |
| 1777956922 | 15° C | 76% | 1011.4 hPa | 0 mm | 1.34 m/s, 230° | - | - |
| 1777956322 | 15.56° C | 76% | 1011.3 hPa | 0 mm | 0.89 m/s, 260° | - | - |
| 1777955722 | 15.56° C | 75% | 1011.4 hPa | 0 mm | 0.89 m/s, 224° | - | - |
| 1777955122 | 15.56° C | 74% | 1011.3 hPa | 0 mm | 0 m/s | - | - |
* Rain latest hour (hover to see other rain measurements)
** Current wind speed in m/s (hover to see current wind gust speed)